Time;durP1;ratioP1;P1;durP2;ratioP2;P2;SDS_P1;SDS_P2;PMS_P1;PMS_P2;Temp;Humidity;BMP_temperature;BMP_pressure;BME280_temperature;BME280_humidity;BME280_pressure;Samples;Min_cycle;Max_cycle;Signal;HPM_P1;HPM_P2
2022/09/27 05:39:24;;;;;;;;;1.25;1.25;;;;;13.24;68.96;100277.13;2803566;23;45889;-76
2022/09/27 05:40:34;;;;;;;;;1.25;1.25;;;;;13.25;69.24;100263.84;2389381;28;45473;-76
2022/09/27 05:41:45;;;;;;;;;1.00;1.00;;;;;13.26;69.07;100268.19;2383519;28;46883;-76
2022/09/27 05:42:55;;;;;;;;;1.25;1.25;;;;;13.27;69.29;100267.25;2384879;28;44735;-75
2022/09/27 05:44:06;;;;;;;;;3.00;1.00;;;;;13.29;68.51;100275.09;2383771;28;46590;-75
2022/09/27 05:45:17;;;;;;;;;2.25;1.00;;;;;13.27;69.01;100272.53;2391349;28;45204;-75
2022/09/27 05:46:28;;;;;;;;;2.25;1.75;;;;;13.27;68.93;100274.31;2392058;28;46380;-75
2022/09/27 05:47:38;;;;;;;;;1.25;1.00;;;;;13.27;68.91;100275.19;2386064;28;45311;-76
2022/09/27 05:48:48;;;;;;;;;1.00;1.00;;;;;13.28;68.86;100274.22;2391210;28;45350;-73
2022/09/27 05:49:59;;;;;;;;;1.00;1.00;;;;;13.30;68.85;100274.16;2388738;28;45369;-73
2022/09/27 05:51:10;;;;;;;;;1.75;1.00;;;;;13.32;68.65;100285.50;2389784;28;45479;-73
2022/09/27 05:52:20;;;;;;;;;1.75;1.00;;;;;13.31;68.84;100280.31;2380158;28;45407;-73
2022/09/27 05:53:31;;;;;;;;;1.50;0.00;;;;;13.30;68.59;100287.38;2375644;28;48268;-73
2022/09/27 05:54:41;;;;;;;;;0.25;0.25;;;;;13.32;68.95;100282.84;2375487;28;44770;-73
2022/09/27 05:55:51;;;;;;;;;1.00;1.00;;;;;13.33;69.22;100281.94;2385505;28;45681;-73
2022/09/27 05:57:02;;;;;;;;;1.00;1.00;;;;;13.34;68.93;100274.84;2382551;28;44759;-73
2022/09/27 05:58:15;;;;;;;;;2.00;1.00;;;;;13.34;68.90;100281.00;2385444;28;45389;-74
2022/09/27 05:59:26;;;;;;;;;2.00;1.00;;;;;13.37;68.69;100266.78;2392761;28;45202;-73
2022/09/27 06:00:37;;;;;;;;;2.25;1.75;;;;;13.39;68.46;100270.19;2392295;28;45308;-74
2022/09/27 06:01:47;;;;;;;;;1.75;0.50;;;;;13.41;68.74;100264.84;2376674;28;44750;-74
2022/09/27 06:02:59;;;;;;;;;1.00;1.00;;;;;13.43;68.83;100263.84;2380750;28;45347;-74
2022/09/27 06:04:09;;;;;;;;;2.00;1.00;;;;;13.47;69.06;100273.28;2388136;28;45227;-74
2022/09/27 06:05:20;;;;;;;;;1.00;1.00;;;;;13.49;69.13;100274.06;2387100;28;45468;-74
2022/09/27 06:06:35;;;;;;;;;1.50;1.00;;;;;13.50;68.92;100267.84;2390460;28;45234;-75
2022/09/27 06:07:48;;;;;;;;;1.25;1.25;;;;;13.51;68.75;100268.69;2382016;28;47056;-74
2022/09/27 06:09:00;;;;;;;;;4.00;0.25;;;;;13.54;69.02;100270.31;2379913;28;45270;-74
2022/09/27 06:10:10;;;;;;;;;1.00;1.00;;;;;13.55;68.67;100270.25;2383832;28;46305;-74
2022/09/27 06:11:20;;;;;;;;;1.25;1.00;;;;;13.56;68.75;100266.69;2387219;28;45445;-74
2022/09/27 06:12:31;;;;;;;;;1.00;1.00;;;;;13.56;69.18;100256.13;2393798;28;46827;-74
2022/09/27 06:13:41;;;;;;;;;1.00;0.25;;;;;13.59;68.39;100255.09;2393259;28;45452;-74
2022/09/27 06:14:51;;;;;;;;;0.25;0.25;;;;;13.58;68.95;100251.59;2383575;28;47215;-74
2022/09/27 06:16:02;;;;;;;;;1.25;1.00;;;;;13.60;68.55;100252.41;2387075;28;45188;-74
2022/09/27 06:17:13;;;;;;;;;4.75;2.00;;;;;13.61;68.36;100253.22;2381689;28;48058;-74
2022/09/27 06:18:23;;;;;;;;;1.00;1.00;;;;;13.62;68.73;100254.94;2385620;28;45512;-74
2022/09/27 06:19:34;;;;;;;;;2.75;2.00;;;;;13.64;68.62;100263.63;2385095;28;45546;-74
2022/09/27 06:20:45;;;;;;;;;6.25;3.00;;;;;13.64;68.59;100263.63;2390760;28;45206;-74
2022/09/27 06:21:55;;;;;;;;;2.50;1.25;;;;;13.63;68.17;100259.28;2393480;28;47137;-74
2022/09/27 06:23:14;;;;;;;;;1.00;1.00;;;;;13.63;68.16;100261.91;2378541;28;45194;-74
2022/09/27 06:24:25;;;;;;;;;1.00;1.00;;;;;13.63;68.15;100263.72;2378518;28;48550;-74
2022/09/27 06:25:36;;;;;;;;;2.00;1.00;;;;;13.62;68.17;100268.16;2393224;28;45211;-74
2022/09/27 06:26:46;;;;;;;;;0.75;0.50;;;;;13.64;68.19;100268.91;2382236;28;47096;-74
2022/09/27 06:27:56;;;;;;;;;2.00;0.25;;;;;13.66;68.16;100269.69;2386708;28;45438;-74
2022/09/27 06:29:07;;;;;;;;;0.00;0.00;;;;;13.70;68.11;100273.84;2393991;28;46192;-74
2022/09/27 06:30:17;;;;;;;;;2.00;1.25;;;;;13.71;68.07;100270.28;2394161;28;45235;-74
2022/09/27 06:31:27;;;;;;;;;1.75;0.50;;;;;13.73;67.94;100273.69;2394136;28;45239;-74
2022/09/27 06:32:38;;;;;;;;;1.00;1.00;;;;;13.75;68.13;100271.00;2392481;28;44682;-75
2022/09/27 06:33:48;;;;;;;;;2.00;1.00;;;;;13.75;67.91;100265.72;2394210;28;46190;-74
2022/09/27 06:34:59;;;;;;;;;3.75;2.00;;;;;13.79;67.71;100267.25;2383645;28;44778;-74
2022/09/27 06:36:09;;;;;;;;;1.25;1.25;;;;;13.78;67.65;100273.44;2386378;28;45497;-74
2022/09/27 06:37:24;;;;;;;;;0.75;0.75;;;;;13.76;67.80;100267.41;2393660;28;44695;-74
2022/09/27 06:38:34;;;;;;;;;1.00;1.00;;;;;13.76;67.93;100262.13;2393437;28;45607;-74
2022/09/27 06:39:46;;;;;;;;;1.00;0.25;;;;;13.80;68.09;100268.09;2393800;28;45306;-74
2022/09/27 06:41:00;;;;;;;;;1.00;1.00;;;;;13.82;67.47;100267.09;2390318;28;45277;-74
2022/09/27 06:42:11;;;;;;;;;1.50;0.50;;;;;13.82;67.79;100260.94;2389333;28;45413;-74
2022/09/27 06:43:21;;;;;;;;;1.00;1.00;;;;;13.84;67.71;100265.22;2383224;28;47368;-75
2022/09/27 06:44:32;;;;;;;;;1.00;1.00;;;;;13.87;67.72;100269.47;2386841;28;45394;-74
2022/09/27 06:45:42;;;;;;;;;1.50;1.50;;;;;13.88;68.02;100265.88;2393960;28;46702;-75
2022/09/27 06:46:54;;;;;;;;;1.75;1.75;;;;;13.92;67.97;100270.06;2394212;28;45278;-74
2022/09/27 06:48:06;;;;;;;;;2.00;0.00;;;;;13.93;67.92;100258.56;2392435;28;46605;-74
2022/09/27 06:49:16;;;;;;;;;1.00;1.00;;;;;13.95;67.80;100261.13;2392608;28;44831;-75
2022/09/27 06:50:32;;;;;;;;;1.00;0.25;;;;;13.98;67.16;100265.38;2380550;28;47178;-75
2022/09/27 06:51:43;;;;;;;;;2.00;1.00;;;;;13.95;67.08;100256.69;2386511;28;45326;-74
2022/09/27 06:52:53;;;;;;;;;0.50;0.50;;;;;13.97;67.21;100261.91;2381101;28;47362;-74
2022/09/27 06:54:03;;;;;;;;;0.75;0.25;;;;;13.98;67.35;100274.16;2376685;28;45243;-74
2022/09/27 06:55:15;;;;;;;;;1.75;1.00;;;;;14.00;67.19;100274.09;2385745;28;45430;-74
2022/09/27 06:56:25;;;;;;;;;2.25;1.25;;;;;14.02;67.58;100266.94;2383178;28;45214;-74
2022/09/27 07:00:33;;;;;;;;;1.50;1.00;;;;;13.97;67.08;100275.09;2392874;28;45627;-74
2022/09/27 07:01:44;;;;;;;;;1.00;1.00;;;;;13.97;67.39;100263.69;2379898;28;45300;-74
2022/09/27 07:02:59;;;;;;;;;2.50;0.25;;;;;14.01;67.45;100270.50;2374823;28;47224;-74
2022/09/27 07:04:10;;;;;;;;;1.50;1.50;;;;;14.03;67.78;100280.03;2387361;28;45202;-74
2022/09/27 07:05:21;;;;;;;;;2.50;0.00;;;;;14.05;67.17;100272.88;2393384;28;46237;-74
2022/09/27 07:06:31;;;;;;;;;1.00;1.00;;;;;14.06;67.12;100276.38;2392674;28;44787;-74
2022/09/27 07:07:42;;;;;;;;;1.00;1.00;;;;;14.05;66.69;100272.88;2386499;28;47219;-74
2022/09/27 07:08:53;;;;;;;;;2.25;1.00;;;;;14.07;66.83;100278.09;2386913;28;44767;-74
2022/09/27 07:10:04;;;;;;;;;1.75;1.00;;;;;14.07;67.41;100278.09;2389759;28;45259;-74
2022/09/27 07:11:15;;;;;;;;;2.25;0.75;;;;;14.07;67.14;100276.28;2391926;28;45369;-74
2022/09/27 07:12:25;;;;;;;;;2.25;1.00;;;;;14.08;67.34;100287.72;2389170;28;46114;-74
2022/09/27 07:13:39;;;;;;;;;1.00;1.00;;;;;14.12;67.14;100289.25;2393270;28;45404;-74
2022/09/27 07:14:49;;;;;;;;;2.00;1.00;;;;;14.14;66.98;100287.38;2377500;28;47430;-74
2022/09/27 07:16:00;;;;;;;;;1.00;1.00;;;;;14.16;67.35;100279.38;2384618;28;44835;-74
2022/09/27 07:17:12;;;;;;;;;2.50;1.75;;;;;14.20;67.47;100290.63;2385672;28;45444;-74
2022/09/27 07:18:22;;;;;;;;;0.50;0.50;;;;;14.23;67.01;100288.66;2392145;28;45391;-74
2022/09/27 07:19:33;;;;;;;;;2.00;1.00;;;;;14.26;67.59;100290.28;2392206;28;45807;-74
2022/09/27 07:20:43;;;;;;;;;1.00;1.00;;;;;14.29;66.85;100285.69;2390233;28;45392;-74
2022/09/27 07:21:53;;;;;;;;;1.00;0.75;;;;;14.31;66.70;100295.31;2389541;28;46146;-74
2022/09/27 07:23:06;;;;;;;;;1.00;1.00;;;;;14.29;66.53;100290.09;2391237;28;45498;-74
2022/09/27 07:24:16;;;;;;;;;0.25;0.00;;;;;14.29;66.76;100301.53;2392082;28;46487;-74
2022/09/27 07:25:26;;;;;;;;;1.25;1.00;;;;;14.30;66.79;100294.44;2391980;28;44805;-74
2022/09/27 07:26:37;;;;;;;;;1.00;1.00;;;;;14.33;66.91;100301.34;2391828;28;45527;-74
2022/09/27 07:27:47;;;;;;;;;0.25;0.25;;;;;14.34;66.39;100295.13;2376486;28;45401;-74
2022/09/27 07:28:58;;;;;;;;;3.50;1.00;;;;;14.35;66.54;100304.75;2379083;28;45584;-74
2022/09/27 07:30:10;;;;;;;;;1.00;0.00;;;;;14.36;66.57;100302.03;2380823;28;45473;-74
2022/09/27 07:31:21;;;;;;;;;1.00;1.00;;;;;14.39;65.87;100296.59;2384156;28;46586;-74
2022/09/27 07:32:34;;;;;;;;;1.25;1.00;;;;;14.40;66.06;100297.41;2400145;28;45443;-74
2022/09/27 07:33:44;;;;;;;;;1.00;1.00;;;;;14.40;66.28;100300.94;2391829;28;46223;-74
2022/09/27 07:34:55;;;;;;;;;1.50;0.00;;;;;14.44;66.12;100303.41;2394412;28;45155;-74
2022/09/27 07:36:07;;;;;;;;;1.00;1.00;;;;;14.44;65.89;100303.41;2382414;28;46819;-74
2022/09/27 07:37:17;;;;;;;;;1.00;0.50;;;;;14.43;65.92;100307.84;2391715;28;45260;-74
2022/09/27 07:38:28;;;;;;;;;2.00;1.00;;;;;14.45;66.49;100310.38;2387104;28;46243;-74
2022/09/27 07:39:38;;;;;;;;;2.25;2.00;;;;;14.49;66.38;100311.94;2391550;28;44806;-74
2022/09/27 07:40:48;;;;;;;;;0.50;0.50;;;;;14.50;66.42;100309.19;2398658;28;45350;-74
2022/09/27 07:41:59;;;;;;;;;1.50;1.00;;;;;14.55;66.71;100313.34;2393535;28;45341;-74
2022/09/27 07:43:10;;;;;;;;;2.00;1.50;;;;;14.56;66.15;100315.06;2393354;28;45416;-74
2022/09/27 07:44:21;;;;;;;;;0.75;0.00;;;;;14.57;65.90;100330.84;2393347;28;44684;-74
2022/09/27 07:45:31;;;;;;;;;1.75;1.00;;;;;14.57;65.82;100324.72;2390180;28;45463;-74
2022/09/27 07:46:42;;;;;;;;;1.00;1.00;;;;;14.58;65.93;100326.41;2391938;28;45690;-73
2022/09/27 07:47:52;;;;;;;;;1.25;1.25;;;;;14.60;66.09;100324.53;2378214;28;45998;-74
2022/09/27 07:49:02;;;;;;;;;0.75;0.75;;;;;14.62;66.01;100331.44;2382709;28;45329;-74
2022/09/27 07:50:13;;;;;;;;;1.00;1.00;;;;;14.62;66.05;100318.22;2393054;28;45357;-74
2022/09/27 07:51:23;;;;;;;;;1.00;1.00;;;;;14.65;66.27;100318.97;2384611;28;45293;-74
2022/09/27 07:52:41;;;;;;;;;1.50;0.25;;;;;14.68;66.43;100324.09;2384408;28;45269;-74
2022/09/27 07:53:52;;;;;;;;;0.75;0.25;;;;;14.70;65.79;100324.84;2386625;28;45361;-74
2022/09/27 07:55:02;;;;;;;;;1.75;0.00;;;;;14.72;65.80;100315.03;2392987;28;46455;-74
2022/09/27 07:56:13;;;;;;;;;1.25;1.00;;;;;14.77;66.62;100320.06;2377930;28;45475;-74
2022/09/27 07:57:23;;;;;;;;;1.00;1.00;;;;;14.80;66.29;100326.03;2380438;28;46393;-74
2022/09/27 07:58:34;;;;;;;;;1.00;1.00;;;;;14.82;65.78;100328.59;2389284;28;45480;-74
2022/09/27 07:59:44;;;;;;;;;1.25;1.00;;;;;14.84;65.93;100327.56;2381893;28;48354;-74
2022/09/27 08:00:55;;;;;;;;;2.50;1.00;;;;;14.85;65.41;100337.25;2376563;28;44887;-74
2022/09/27 08:02:12;;;;;;;;;0.50;0.00;;;;;14.88;65.34;100335.34;2381581;28;45988;-74
2022/09/27 08:03:23;;;;;;;;;1.75;1.00;;;;;14.89;65.34;100331.78;2386631;28;44795;-74
2022/09/27 08:04:33;;;;;;;;;1.00;1.00;;;;;14.95;65.35;100342.84;2379184;28;46748;-74
2022/09/27 08:05:46;;;;;;;;;1.00;1.00;;;;;14.99;65.35;100340.88;2379203;28;45480;-74
2022/09/27 08:06:56;;;;;;;;;2.00;0.50;;;;;15.03;65.06;100344.19;2375852;28;47974;-74
2022/09/27 08:08:06;;;;;;;;;1.25;1.25;;;;;15.07;65.06;100340.44;2377383;28;44812;-74
2022/09/27 08:09:17;;;;;;;;;1.75;1.00;;;;;15.13;65.06;100342.72;2383887;28;45320;-74
2022/09/27 08:10:30;;;;;;;;;1.25;1.00;;;;;15.17;64.57;100344.25;2379643;28;45795;-74
2022/09/27 08:11:40;;;;;;;;;0.25;0.00;;;;;15.19;63.77;100341.50;2383197;28;45534;-73
2022/09/27 08:12:51;;;;;;;;;0.75;0.75;;;;;15.19;64.35;100345.00;2382608;28;44823;-74
2022/09/27 08:14:03;;;;;;;;;1.00;1.00;;;;;15.24;64.75;100350.03;2384913;28;45539;-74
2022/09/27 08:15:13;;;;;;;;;1.50;1.00;;;;;15.26;63.41;100345.47;2385571;28;45445;-74
2022/09/27 08:16:24;;;;;;;;;1.50;0.25;;;;;15.26;63.68;100348.13;2387383;28;45669;-74
2022/09/27 08:17:34;;;;;;;;;5.75;0.75;;;;;15.28;63.15;100348.06;2379601;28;45332;-74
2022/09/27 08:18:44;;;;;;;;;1.00;1.00;;;;;15.27;63.64;100344.56;2380236;28;45335;-74
2022/09/27 08:19:55;;;;;;;;;1.25;1.25;;;;;15.29;63.54;100339.16;2376433;28;45280;-74
2022/09/27 08:21:05;;;;;;;;;0.25;0.25;;;;;15.31;63.80;100355.81;2377057;28;45243;-74
2022/09/27 08:22:16;;;;;;;;;3.00;1.75;;;;;15.32;63.02;100346.94;2389816;28;45223;-74
2022/09/27 08:23:26;;;;;;;;;0.00;0.00;;;;;15.32;63.35;100351.34;2392817;28;45687;-74
2022/09/27 08:24:37;;;;;;;;;3.00;1.00;;;;;15.30;63.38;100339.09;2392527;28;45634;-74
2022/09/27 08:25:52;;;;;;;;;0.75;0.75;;;;;15.31;63.57;100350.50;2391699;28;47042;-74
2022/09/27 08:27:04;;;;;;;;;0.25;0.25;;;;;15.32;63.68;100343.41;2388105;28;44795;-74
2022/09/27 08:28:14;;;;;;;;;1.00;1.00;;;;;15.31;62.61;100345.22;2387803;28;45481;-74
2022/09/27 08:29:25;;;;;;;;;0.25;0.00;;;;;15.33;62.98;100347.78;2389865;28;47147;-74
2022/09/27 08:30:36;;;;;;;;;1.00;1.00;;;;;15.34;62.97;100352.13;2392775;28;46501;-74
2022/09/27 08:31:50;;;;;;;;;1.00;1.00;;;;;15.33;63.23;100351.28;2391792;28;44631;-74
2022/09/27 08:33:02;;;;;;;;;1.00;1.00;;;;;15.34;63.19;100352.13;2393239;28;45578;-74
2022/09/27 08:34:12;;;;;;;;;0.50;0.50;;;;;15.35;62.38;100349.41;2389559;28;45377;-74
2022/09/27 08:35:22;;;;;;;;;2.00;1.00;;;;;15.37;62.52;100352.81;2393296;28;45335;-74
2022/09/27 08:36:36;;;;;;;;;1.25;1.00;;;;;15.41;63.09;100350.81;2381493;28;45483;-74
2022/09/27 08:37:58;;;;;;;;;2.00;1.00;;;;;15.47;62.47;100355.75;2383055;28;45372;-74
2022/09/27 08:39:08;;;;;;;;;1.00;1.00;;;;;15.50;62.21;100354.72;2380827;28;44819;-74
2022/09/27 08:40:22;;;;;;;;;1.00;0.75;;;;;15.52;62.45;100356.34;2380761;28;45432;-74
2022/09/27 08:41:38;;;;;;;;;0.75;0.75;;;;;15.55;62.26;100351.78;2393303;28;45235;-74
2022/09/27 08:43:21;;;;;;;;;0.00;0.00;;;;;15.59;61.95;100363.91;2382981;28;47195;-74
2022/09/27 08:44:37;;;;;;;;;0.00;0.00;;;;;15.61;61.80;100367.28;2363810;28;44827;-74
2022/09/27 08:46:29;;;;;;;;;1.00;1.00;;;;;15.60;61.47;100365.63;2392737;28;45348;-74
2022/09/27 08:48:14;;;;;;;;;1.75;1.00;;;;;15.56;61.99;100367.56;2384201;28;44798;-74
2022/09/27 08:49:39;;;;;;;;;1.75;1.00;;;;;15.56;62.07;100370.22;2366989;28;47184;-74
2022/09/27 08:50:52;;;;;;;;;0.00;0.00;;;;;15.57;61.99;100371.09;2382435;28;44763;-74
2022/09/27 08:52:07;;;;;;;;;2.00;1.50;;;;;15.60;62.46;100370.91;2385969;28;45644;-74
2022/09/27 08:53:43;;;;;;;;;0.75;0.75;;;;;15.64;61.89;100375.06;2392858;28;45215;-74
2022/09/27 08:54:57;;;;;;;;;3.25;0.00;;;;;15.66;61.64;100375.81;2392225;28;46604;-74
2022/09/27 08:56:09;;;;;;;;;1.25;1.25;;;;;15.63;61.30;100376.84;2379583;28;44680;-74
2022/09/27 08:57:22;;;;;;;;;2.00;1.00;;;;;15.62;62.09;100374.31;2386216;28;45514;-75
2022/09/27 08:58:42;;;;;;;;;0.50;0.50;;;;;15.61;61.74;100370.81;2392099;28;45371;-74
2022/09/27 09:00:05;;;;;;;;;1.00;1.00;;;;;15.64;62.08;100367.97;2398374;28;46511;-75
2022/09/27 09:01:17;;;;;;;;;1.00;1.00;;;;;15.69;62.42;100375.66;2391927;28;45332;-75
2022/09/27 09:02:27;;;;;;;;;1.00;1.00;;;;;15.74;61.94;100375.34;2389161;28;45796;-75
2022/09/27 09:03:51;;;;;;;;;0.00;0.00;;;;;15.79;62.51;100370.63;2380855;28;44820;-75
2022/09/27 09:05:08;;;;;;;;;1.00;1.00;;;;;15.81;60.26;100367.88;2385649;28;45465;-74
2022/09/27 09:06:27;;;;;;;;;1.00;1.00;;;;;15.83;61.19;100366.84;2393277;28;45219;-75
2022/09/27 09:07:51;;;;;;;;;1.00;1.00;;;;;15.85;61.61;100364.13;2388706;28;45410;-75
2022/09/27 09:09:28;;;;;;;;;1.00;0.00;;;;;15.89;61.89;100370.06;2392781;28;45329;-75
2022/09/27 09:12:48;;;;;;;;;1.00;1.00;;;;;15.99;61.84;100368.56;2392629;28;45398;-75
2022/09/27 09:14:09;;;;;;;;;0.00;0.00;;;;;16.04;61.47;100366.50;2386277;28;45628;-74
2022/09/27 09:15:53;;;;;;;;;1.50;0.25;;;;;16.07;61.06;100363.69;2388202;28;44738;-75
2022/09/27 09:17:26;;;;;;;;;1.00;1.00;;;;;16.10;61.55;100361.78;2391965;28;45496;-75
2022/09/27 09:19:00;;;;;;;;;2.50;1.00;;;;;16.14;61.42;100363.28;2382984;28;45386;-75
2022/09/27 09:20:39;;;;;;;;;1.00;0.00;;;;;16.17;61.17;100371.88;2386995;28;45445;-75
2022/09/27 09:22:24;;;;;;;;;1.00;1.00;;;;;16.14;60.61;100364.13;2390275;28;45444;-75
2022/09/27 09:23:38;;;;;;;;;2.75;1.00;;;;;16.08;60.52;100362.72;2388556;28;46096;-75
2022/09/27 09:25:33;;;;;;;;;0.75;0.75;;;;;16.05;60.83;100365.53;2387084;28;45251;-75
2022/09/27 09:27:12;;;;;;;;;0.00;0.00;;;;;16.06;61.10;100366.41;2343517;29;45706;-75
2022/09/27 09:28:25;;;;;;;;;1.50;0.50;;;;;16.07;61.04;100362.81;2383804;28;45437;-75
2022/09/27 09:29:57;;;;;;;;;2.00;1.50;;;;;16.08;60.00;100364.50;2382602;28;47251;-75
2022/09/27 09:31:20;;;;;;;;;1.75;1.75;;;;;16.09;59.96;100363.56;2386125;28;45472;-75
2022/09/27 09:32:51;;;;;;;;;1.00;1.00;;;;;16.08;59.80;100364.50;2388035;28;45713;-75
2022/09/27 09:34:32;;;;;;;;;1.50;1.00;;;;;16.07;58.91;100357.50;2391815;28;45254;-75
2022/09/27 09:35:58;;;;;;;;;2.00;1.00;;;;;16.04;59.83;100358.56;2391290;28;45700;-75
2022/09/27 09:37:18;;;;;;;;;1.75;1.00;;;;;16.01;59.74;100352.53;2390195;28;45366;-74
2022/09/27 09:38:51;;;;;;;;;0.50;0.00;;;;;16.02;59.95;100348.97;2389029;28;46279;-74
2022/09/27 09:40:07;;;;;;;;;3.00;1.25;;;;;16.00;60.00;100349.03;2391735;28;45459;-75
2022/09/27 09:41:25;;;;;;;;;1.00;0.25;;;;;16.01;60.54;100347.25;2390083;28;45445;-75
2022/09/27 09:42:46;;;;;;;;;2.00;0.75;;;;;16.03;60.55;100348.00;2393620;28;45381;-75
2022/09/27 09:44:05;;;;;;;;;1.00;0.25;;;;;16.05;60.32;100340.84;2385495;28;45651;-75
2022/09/27 09:45:44;;;;;;;;;1.00;0.50;;;;;16.08;60.03;100340.66;2394438;28;45290;-75
2022/09/27 09:47:00;;;;;;;;;1.00;1.00;;;;;16.10;60.20;100344.03;2374652;28;47446;-75
2022/09/27 09:48:14;;;;;;;;;2.00;0.75;;;;;16.10;60.07;100338.75;2374869;28;45416;-75
2022/09/27 09:49:24;;;;;;;;;1.00;1.00;;;;;16.11;59.80;100340.47;2377862;28;46237;-75
2022/09/27 09:50:42;;;;;;;;;0.00;0.00;;;;;16.10;59.39;100336.09;2387170;28;44617;-75
2022/09/27 09:51:58;;;;;;;;;0.25;0.00;;;;;16.04;59.46;100333.81;2394518;28;46459;-75
2022/09/27 09:53:15;;;;;;;;;0.50;0.00;;;;;16.02;59.97;100339.22;2394317;28;45571;-75
2022/09/27 09:54:38;;;;;;;;;1.25;0.75;;;;;15.97;59.87;100336.84;2394360;28;45399;-75
2022/09/27 09:56:01;;;;;;;;;3.00;1.00;;;;;15.95;60.10;100330.78;2390241;28;45349;-75
2022/09/27 09:57:39;;;;;;;;;1.75;1.00;;;;;15.92;59.15;100327.47;2392277;28;46765;-76
2022/09/27 09:58:58;;;;;;;;;0.00;0.00;;;;;15.92;59.90;100327.47;2380173;28;44720;-74
2022/09/27 10:00:14;;;;;;;;;1.00;1.00;;;;;15.94;59.51;100323.78;2386783;28;45277;-75
2022/09/27 10:01:32;;;;;;;;;1.00;1.00;;;;;15.98;60.01;100327.09;2394388;28;45242;-75
2022/09/27 10:02:47;;;;;;;;;0.00;0.00;;;;;16.04;59.83;100318.78;2394145;28;46489;-75
2022/09/27 10:03:58;;;;;;;;;0.75;0.75;;;;;16.13;59.38;100319.13;2402699;28;45313;-75
2022/09/27 10:05:13;;;;;;;;;0.00;0.00;;;;;16.20;59.43;100316.00;2394871;28;46392;-75
2022/09/27 10:06:27;;;;;;;;;14.75;13.50;;;;;16.31;60.13;100303.88;2394649;28;45303;-75
2022/09/27 10:07:38;;;;;;;;;2.25;0.75;;;;;16.42;59.33;100311.16;2393682;28;46446;-75
2022/09/27 10:08:53;;;;;;;;;3.00;1.00;;;;;16.49;59.20;100298.31;2394367;28;45337;-75
2022/09/27 10:10:05;;;;;;;;;1.50;0.00;;;;;16.57;59.55;100305.78;2393962;28;45412;-75
2022/09/27 10:11:40;;;;;;;;;2.00;1.00;;;;;16.69;60.02;100307.59;2394461;28;45330;-75
2022/09/27 10:12:51;;;;;;;;;1.00;1.00;;;;;16.70;56.81;100308.47;2384176;28;45433;-75
2022/09/27 10:14:01;;;;;;;;;2.25;1.00;;;;;16.72;58.58;100296.78;2390440;28;44882;-75
2022/09/27 10:15:26;;;;;;;;;1.25;0.50;;;;;16.75;58.74;100301.06;2399045;28;48059;-75
2022/09/27 10:16:41;;;;;;;;;1.00;1.00;;;;;16.74;58.67;100288.75;2383674;28;45334;-76
2022/09/27 10:17:55;;;;;;;;;1.00;1.00;;;;;16.76;59.80;100297.47;2384291;28;46617;-75
2022/09/27 10:19:06;;;;;;;;;2.00;1.00;;;;;16.77;59.13;100293.84;2385704;28;44783;-75
2022/09/27 10:20:48;;;;;;;;;2.00;2.00;;;;;16.79;58.15;100294.59;2390885;28;46464;-75
2022/09/27 10:22:10;;;;;;;;;2.00;1.25;;;;;16.80;58.70;100298.09;2393393;28;45396;-75
2022/09/27 10:23:23;;;;;;;;;0.75;0.75;;;;;16.82;58.83;100293.53;2394034;28;46538;-76
2022/09/27 10:24:52;;;;;;;;;0.00;0.00;;;;;16.90;58.74;100300.97;2381721;28;45270;-75
2022/09/27 10:26:04;;;;;;;;;0.00;0.00;;;;;16.91;58.56;100292.06;2389048;28;47636;-76
2022/09/27 10:27:14;;;;;;;;;1.00;1.00;;;;;16.91;58.38;100279.66;2392563;28;44845;-76
2022/09/27 10:28:43;;;;;;;;;1.00;0.00;;;;;16.97;58.18;100286.34;2383271;28;46624;-76
2022/09/27 10:29:58;;;;;;;;;0.25;0.25;;;;;17.05;57.16;100293.78;2389388;28;45314;-75
2022/09/27 10:31:17;;;;;;;;;2.00;0.50;;;;;17.08;58.00;100289.13;2394440;28;45329;-76
2022/09/27 10:32:35;;;;;;;;;0.75;0.75;;;;;17.15;55.81;100291.38;2394139;28;45357;-76
2022/09/27 10:33:58;;;;;;;;;2.00;1.00;;;;;17.21;56.99;100286.50;2387833;28;46140;-75
2022/09/27 10:35:43;;;;;;;;;0.25;0.25;;;;;17.31;57.74;100289.38;2393363;28;45464;-75
2022/09/27 10:37:11;;;;;;;;;3.00;1.00;;;;;17.37;58.00;100293.44;2345365;29;46412;-74
2022/09/27 10:38:28;;;;;;;;;1.00;0.00;;;;;17.41;57.86;100288.72;2390940;28;45203;-75
2022/09/27 10:39:42;;;;;;;;;0.75;0.75;;;;;17.45;57.88;100289.38;2388727;28;46432;-75
2022/09/27 10:40:54;;;;;;;;;1.00;1.00;;;;;17.42;57.83;100296.63;2383983;28;45290;-75
2022/09/27 10:42:32;;;;;;;;;0.25;0.25;;;;;17.35;57.08;100299.78;2386324;28;45801;-75
2022/09/27 10:43:43;;;;;;;;;0.50;0.50;;;;;17.23;57.59;100296.19;2393841;28;44843;-75
2022/09/27 10:44:54;;;;;;;;;1.00;1.00;;;;;17.13;57.87;100293.28;2388161;28;45450;-75
2022/09/27 10:46:07;;;;;;;;;1.00;1.00;;;;;17.08;58.26;100299.75;2394538;28;44746;-75
2022/09/27 10:47:22;;;;;;;;;0.00;0.00;;;;;17.03;58.45;100301.00;2383422;28;47334;-75
2022/09/27 10:48:33;;;;;;;;;1.50;1.00;;;;;16.94;59.04;100305.16;2386975;28;46854;-75
2022/09/27 10:49:44;;;;;;;;;0.25;0.25;;;;;16.84;58.74;100308.41;2381747;28;47051;-75
2022/09/27 10:51:02;;;;;;;;;2.00;0.25;;;;;16.68;59.28;100313.88;2386660;28;45696;-75
2022/09/27 10:52:23;;;;;;;;;0.00;0.00;;;;;16.48;59.92;100315.19;2393483;28;46516;-75
2022/09/27 10:53:35;;;;;;;;;1.00;1.00;;;;;16.38;60.86;100312.28;2393036;28;45874;-75
2022/09/27 10:54:59;;;;;;;;;0.75;0.75;;;;;16.25;61.42;100318.38;2392988;28;45454;-75
2022/09/27 10:56:25;;;;;;;;;2.00;0.75;;;;;16.17;60.79;100328.63;2382275;28;45483;-75
2022/09/27 10:57:36;;;;;;;;;1.00;1.00;;;;;16.11;61.00;100313.94;2382934;28;46301;-75
2022/09/27 10:58:46;;;;;;;;;1.50;0.50;;;;;16.12;61.15;100322.75;2383495;28;45433;-74
2022/09/27 11:00:21;;;;;;;;;1.25;0.50;;;;;16.14;61.71;100324.38;2385819;28;45293;-75
2022/09/27 11:01:47;;;;;;;;;1.25;1.25;;;;;16.14;61.77;100329.66;2392433;28;44794;-75
2022/09/27 11:03:04;;;;;;;;;0.00;0.00;;;;;16.13;62.06;100319.13;2383914;28;47113;-74
2022/09/27 11:04:27;;;;;;;;;1.00;1.00;;;;;16.13;61.63;100317.34;2384768;28;45304;-75
2022/09/27 11:05:38;;;;;;;;;3.50;1.00;;;;;16.16;62.05;100321.59;2393918;28;45406;-74
2022/09/27 11:06:48;;;;;;;;;1.25;1.25;;;;;16.17;62.25;100321.50;2393737;28;45436;-75
2022/09/27 11:08:18;;;;;;;;;2.00;1.00;;;;;16.16;62.13;100309.22;2393017;28;45496;-75
2022/09/27 11:09:28;;;;;;;;;1.00;1.00;;;;;16.22;62.76;100317.72;2384693;28;45283;-74
2022/09/27 11:10:39;;;;;;;;;0.00;0.00;;;;;16.25;61.84;100317.53;2380966;28;47004;-75
2022/09/27 11:11:50;;;;;;;;;1.50;1.00;;;;;16.24;62.31;100315.81;2387989;28;45286;-75
2022/09/27 11:13:07;;;;;;;;;1.00;1.00;;;;;16.23;62.11;100319.41;2391203;28;46292;-76
2022/09/27 11:14:20;;;;;;;;;2.00;1.00;;;;;16.19;62.37;100324.94;2394729;28;44747;-76
2022/09/27 11:15:40;;;;;;;;;0.00;0.00;;;;;16.18;61.91;100317.91;2393643;28;45527;-76
2022/09/27 11:17:19;;;;;;;;;0.00;0.00;;;;;16.18;62.29;100320.56;2394051;28;45397;-75
2022/09/27 11:18:34;;;;;;;;;1.00;1.00;;;;;16.20;61.92;100323.97;2379196;28;47058;-75
2022/09/27 11:19:51;;;;;;;;;1.75;0.25;;;;;16.23;61.16;100325.56;2376579;28;45256;-75
2022/09/27 11:21:26;;;;;;;;;1.00;1.00;;;;;16.25;61.82;100320.19;2385063;28;48390;-75
2022/09/27 11:23:01;;;;;;;;;1.25;1.00;;;;;16.30;62.54;100323.38;2391562;28;45373;-75
2022/09/27 11:24:40;;;;;;;;;1.50;0.50;;;;;16.33;62.12;100315.22;2382466;28;47319;-75
2022/09/27 11:26:15;;;;;;;;;2.25;0.50;;;;;16.36;61.37;100304.44;2386671;28;44708;-75
2022/09/27 11:27:31;;;;;;;;;3.25;2.00;;;;;16.36;61.66;100292.97;2389713;28;45302;-74
2022/09/27 11:29:10;;;;;;;;;10.25;10.00;;;;;16.35;60.32;100296.56;2393606;28;44815;-75
2022/09/27 11:30:22;;;;;;;;;6.00;6.00;;;;;16.31;61.13;100306.53;2393556;28;45340;-75
2022/09/27 11:31:50;;;;;;;;;5.50;4.75;;;;;16.28;61.24;100312.00;2393666;28;44738;-75
2022/09/27 11:33:27;;;;;;;;;6.00;5.00;;;;;16.27;60.98;100310.34;2393718;28;46562;-75
2022/09/27 11:35:07;;;;;;;;;10.00;6.00;;;;;16.26;61.03;100304.16;2391497;28;45404;-75
2022/09/27 11:36:37;;;;;;;;;18.50;12.50;;;;;16.29;61.81;100313.72;2393096;28;46423;-75
2022/09/27 11:38:12;;;;;;;;;5.00;3.50;;;;;16.35;61.36;100313.31;2383070;28;45541;-75